Time;durP1;ratioP1;P1;durP2;ratioP2;P2;SDS_P1;SDS_P2;PMS_P1;PMS_P2;Temp;Humidity;BMP_temperature;BMP_pressure;BME280_temperature;BME280_humidity;BME280_pressure;Samples;Min_cycle;Max_cycle;Signal;HPM_P1;HPM_P2
2022/04/25 00:01:27;;;;;;;15.97;6.13;;;14.20;60.20;;;;;;4914901;29;20209;-93
2022/04/25 00:04:00;;;;;;;16.27;6.43;;;14.20;60.60;;;;;;4911836;29;20240;-94
2022/04/25 00:06:28;;;;;;;17.63;6.40;;;14.20;60.70;;;;;;4914477;29;20277;-91
2022/04/25 00:08:55;;;;;;;13.40;6.90;;;14.10;60.20;;;;;;4913644;29;20213;-93
2022/04/25 00:11:23;;;;;;;21.43;7.53;;;14.10;60.30;;;;;;4914423;29;20876;-91
2022/04/25 00:13:50;;;;;;;19.97;7.10;;;14.10;60.40;;;;;;4915169;29;20212;-93
2022/04/25 00:16:18;;;;;;;21.87;7.63;;;14.10;60.50;;;;;;4915302;29;20232;-92
2022/04/25 00:18:47;;;;;;;12.50;6.00;;;14.00;60.80;;;;;;4900868;29;20213;-92
2022/04/25 00:21:15;;;;;;;16.20;6.57;;;14.00;60.90;;;;;;4914898;29;20222;-93
2022/04/25 00:23:42;;;;;;;16.03;6.17;;;14.00;61.20;;;;;;4913663;29;20675;-92
2022/04/25 00:26:12;;;;;;;13.57;5.73;;;14.00;61.10;;;;;;4916024;29;20228;-91
2022/04/25 00:28:40;;;;;;;15.97;5.77;;;13.90;61.40;;;;;;4914305;29;20672;-92
2022/04/25 00:31:08;;;;;;;17.13;6.13;;;13.90;61.50;;;;;;4914622;29;20264;-91
2022/04/25 00:33:36;;;;;;;19.47;6.77;;;13.90;62.10;;;;;;4912613;29;20219;-92
2022/04/25 00:36:04;;;;;;;10.97;4.90;;;13.90;61.80;;;;;;4913464;29;20717;-91
2022/04/25 00:38:36;;;;;;;17.27;6.80;;;13.80;61.50;;;;;;4914841;29;20526;-93
2022/04/25 00:41:03;;;;;;;14.93;5.87;;;13.90;61.90;;;;;;4918078;29;20294;-91
2022/04/25 00:43:31;;;;;;;16.37;6.37;;;13.80;61.70;;;;;;4915349;29;20216;-94
2022/04/25 00:45:59;;;;;;;15.67;5.50;;;13.80;61.90;;;;;;4914633;29;20212;-92
2022/04/25 00:48:28;;;;;;;14.63;5.20;;;13.80;61.90;;;;;;4916146;29;20204;-94
2022/04/25 00:50:57;;;;;;;13.30;5.63;;;13.80;61.90;;;;;;4914641;29;20204;-91
2022/04/25 00:53:25;;;;;;;13.70;5.70;;;13.80;61.70;;;;;;4914004;29;20212;-93
2022/04/25 00:55:54;;;;;;;14.00;5.47;;;13.80;62.00;;;;;;4897253;29;20216;-93
2022/04/25 00:58:22;;;;;;;11.27;5.23;;;13.80;62.20;;;;;;4913574;29;20210;-92
2022/04/25 01:00:51;;;;;;;17.00;6.87;;;13.80;62.10;;;;;;4914492;29;20560;-93
2022/04/25 01:03:18;;;;;;;14.50;5.93;;;13.70;62.20;;;;;;4919161;29;20238;-92
2022/04/25 01:05:46;;;;;;;12.67;5.67;;;13.70;61.80;;;;;;4930977;29;20298;-94
2022/04/25 01:08:13;;;;;;;11.77;5.03;;;13.70;62.10;;;;;;4930054;29;20206;-93
2022/04/25 01:10:41;;;;;;;19.57;6.40;;;13.70;62.30;;;;;;4925375;29;20238;-93
2022/04/25 01:13:12;;;;;;;14.80;6.13;;;13.70;62.30;;;;;;4919325;29;20201;-94
2022/04/25 01:15:41;;;;;;;13.37;5.20;;;13.70;62.50;;;;;;4918373;29;20208;-93
2022/04/25 01:18:14;;;;;;;13.87;5.87;;;13.60;62.30;;;;;;4909372;29;20237;-93
2022/04/25 01:20:42;;;;;;;14.17;5.40;;;13.60;62.60;;;;;;4915523;29;20569;-92
2022/04/25 01:28:53;;;;;;;17.87;5.17;;;13.60;62.20;;;;;;4909881;29;20277;-94
2022/04/25 01:31:20;;;;;;;15.40;5.40;;;13.60;62.60;;;;;;4928124;29;20217;-93
2022/04/25 01:33:48;;;;;;;16.93;7.07;;;13.60;62.40;;;;;;4927591;29;20209;-91
2022/04/25 01:36:17;;;;;;;13.63;5.80;;;13.50;62.50;;;;;;4924487;29;20213;-91
2022/04/25 01:38:48;;;;;;;15.83;5.63;;;13.60;62.70;;;;;;4911811;29;20207;-89
2022/04/25 01:41:18;;;;;;;10.10;5.03;;;13.50;63.00;;;;;;4909573;29;20214;-95
2022/04/25 01:43:45;;;;;;;18.47;6.43;;;13.50;62.60;;;;;;4907390;29;20215;-93
2022/04/25 01:46:13;;;;;;;16.87;5.93;;;13.50;62.50;;;;;;4915570;29;20611;-93
2022/04/25 01:48:40;;;;;;;16.93;6.27;;;13.50;62.60;;;;;;4912550;29;20264;-94
2022/04/25 01:51:09;;;;;;;12.83;5.60;;;13.40;62.50;;;;;;4902514;29;20236;-92
2022/04/25 01:53:37;;;;;;;13.40;6.20;;;13.40;62.50;;;;;;4915346;29;20209;-94
2022/04/25 01:56:06;;;;;;;13.37;6.67;;;13.40;62.50;;;;;;4914814;29;20230;-94
2022/04/25 01:58:35;;;;;;;10.70;5.77;;;13.40;62.40;;;;;;4915965;29;20198;-93
2022/04/25 02:01:07;;;;;;;13.90;5.77;;;13.40;62.70;;;;;;4915780;29;20205;-91
2022/04/25 02:03:34;;;;;;;14.17;5.83;;;13.40;62.70;;;;;;4913356;29;20239;-90
2022/04/25 02:06:02;;;;;;;13.57;6.60;;;13.40;62.30;;;;;;4913279;29;20986;-91
2022/04/25 02:08:30;;;;;;;14.40;6.53;;;13.40;62.40;;;;;;4912408;29;20198;-92
2022/04/25 02:13:59;;;;;;;11.77;5.63;;;13.40;62.40;;;;;;4850660;29;20204;-94
2022/04/25 02:16:27;;;;;;;18.60;6.97;;;13.40;62.50;;;;;;4856007;29;20358;-93
2022/04/25 02:18:55;;;;;;;12.97;5.73;;;13.40;62.30;;;;;;4876406;29;20275;-96
2022/04/25 02:21:23;;;;;;;15.80;6.40;;;13.30;62.20;;;;;;4915314;29;20213;-92
2022/04/25 02:23:53;;;;;;;16.57;6.93;;;13.40;62.30;;;;;;4910804;29;20331;-93
2022/04/25 02:26:21;;;;;;;14.57;5.93;;;13.30;63.10;;;;;;4914909;29;20220;-91
2022/04/25 02:28:48;;;;;;;15.20;6.50;;;13.30;62.30;;;;;;4912218;29;20218;-92
2022/04/25 02:31:17;;;;;;;14.70;6.37;;;13.30;62.30;;;;;;4913374;29;20576;-92
2022/04/25 02:33:44;;;;;;;31.93;10.87;;;13.30;62.30;;;;;;4910942;29;20210;-95
2022/04/25 02:36:13;;;;;;;13.33;6.10;;;13.30;62.30;;;;;;4913165;29;20211;-94
2022/04/25 02:38:41;;;;;;;15.80;7.10;;;13.30;63.10;;;;;;4913492;29;20241;-91
2022/04/25 02:41:09;;;;;;;16.40;6.20;;;13.30;62.40;;;;;;4912361;29;20213;-91
2022/04/25 02:43:44;;;;;;;27.03;7.67;;;13.20;62.30;;;;;;4912372;29;20570;-90
2022/04/25 02:46:15;;;;;;;11.30;5.63;;;13.20;62.70;;;;;;4913682;29;20215;-90
2022/04/25 02:48:45;;;;;;;14.27;6.20;;;13.20;62.40;;;;;;4911769;29;20960;-90
2022/04/25 02:51:13;;;;;;;18.47;5.83;;;13.20;62.60;;;;;;4914337;29;20238;-91
2022/04/25 02:53:41;;;;;;;19.90;6.50;;;13.20;62.40;;;;;;4912706;29;20223;-91
2022/04/25 02:56:10;;;;;;;14.33;6.10;;;13.20;62.20;;;;;;4916763;29;20214;-91
2022/04/25 02:58:39;;;;;;;14.93;6.47;;;13.10;62.10;;;;;;4914889;29;20249;-92
2022/04/25 03:01:08;;;;;;;15.83;5.97;;;13.10;62.10;;;;;;4917663;29;20430;-92
2022/04/25 03:03:37;;;;;;;15.53;5.90;;;13.10;62.10;;;;;;4913756;29;20234;-92
2022/04/25 03:06:08;;;;;;;11.97;5.87;;;13.10;62.10;;;;;;4917768;29;20201;-92
2022/04/25 03:08:37;;;;;;;16.03;6.90;;;13.10;62.00;;;;;;4908344;29;20197;-92
2022/04/25 03:11:09;;;;;;;10.83;5.33;;;13.00;61.90;;;;;;4910546;29;20214;-93
2022/04/25 03:13:38;;;;;;;13.00;5.67;;;13.10;62.20;;;;;;4906948;29;20426;-90
2022/04/25 03:16:06;;;;;;;12.00;5.47;;;13.10;62.00;;;;;;4913909;29;20211;-94
2022/04/25 03:18:34;;;;;;;10.67;5.63;;;13.00;61.80;;;;;;4911188;29;20224;-93
2022/04/25 03:21:05;;;;;;;12.63;5.87;;;13.00;61.70;;;;;;4916753;29;20214;-93
2022/04/25 03:23:36;;;;;;;11.73;5.47;;;13.00;61.70;;;;;;4918084;29;20222;-92
2022/04/25 03:26:04;;;;;;;15.07;5.97;;;13.00;62.00;;;;;;4915290;29;20312;-92
2022/04/25 03:28:33;;;;;;;11.80;5.50;;;13.00;61.80;;;;;;4917426;29;20664;-94
2022/04/25 03:31:00;;;;;;;12.33;5.70;;;13.00;61.80;;;;;;4914435;29;20216;-90
2022/04/25 03:33:31;;;;;;;17.37;6.50;;;13.00;61.60;;;;;;4917529;29;20650;-94
2022/04/25 03:36:00;;;;;;;19.00;6.83;;;13.00;61.90;;;;;;4915372;29;20297;-93
2022/04/25 03:38:28;;;;;;;17.13;6.80;;;13.10;62.00;;;;;;4914232;29;20227;-93
2022/04/25 03:40:59;;;;;;;15.40;6.93;;;13.00;62.00;;;;;;4915102;29;20213;-92
2022/04/25 03:43:26;;;;;;;19.53;7.60;;;13.10;62.50;;;;;;4913287;29;20242;-92
2022/04/25 03:45:55;;;;;;;18.00;7.17;;;13.10;62.20;;;;;;4915669;29;20674;-91
2022/04/25 03:48:22;;;;;;;22.23;7.17;;;13.10;62.30;;;;;;4902044;29;20213;-93
2022/04/25 03:50:50;;;;;;;15.43;6.97;;;13.10;62.40;;;;;;4906602;29;20213;-93
2022/04/25 03:53:18;;;;;;;15.63;6.80;;;13.10;62.50;;;;;;4916776;29;20213;-92
2022/04/25 03:58:32;;;;;;;17.10;6.70;;;13.10;62.80;;;;;;4914106;29;20262;-91
2022/04/25 04:00:59;;;;;;;14.10;6.40;;;13.10;62.90;;;;;;4914690;29;20840;-92
2022/04/25 04:03:28;;;;;;;15.57;6.63;;;13.10;62.90;;;;;;4915753;29;20225;-91
2022/04/25 04:05:56;;;;;;;19.47;7.47;;;13.20;63.30;;;;;;4913138;29;20779;-91
2022/04/25 04:08:23;;;;;;;15.27;6.73;;;13.20;63.50;;;;;;4915711;29;20209;-93
2022/04/25 04:10:51;;;;;;;18.23;6.60;;;13.20;63.60;;;;;;4914028;29;20618;-93
2022/04/25 04:13:19;;;;;;;13.43;6.40;;;13.20;63.80;;;;;;4916135;29;20214;-92
2022/04/25 04:15:50;;;;;;;12.13;5.80;;;13.20;64.00;;;;;;4912023;29;20297;-91
2022/04/25 04:18:24;;;;;;;15.13;6.13;;;13.20;64.10;;;;;;4914908;29;20305;-91
2022/04/25 04:20:51;;;;;;;25.57;7.87;;;13.30;64.30;;;;;;4913338;29;20275;-91
2022/04/25 04:23:19;;;;;;;12.37;5.30;;;13.30;64.20;;;;;;4915049;29;20724;-93
2022/04/25 04:25:54;;;;;;;16.27;6.53;;;13.30;64.20;;;;;;4912839;29;20746;-91
2022/04/25 04:28:21;;;;;;;16.13;6.50;;;13.30;64.70;;;;;;4912821;29;20290;-93
2022/04/25 04:30:52;;;;;;;14.97;6.20;;;13.30;64.30;;;;;;4914120;29;20652;-92
2022/04/25 04:33:21;;;;;;;13.37;6.07;;;13.30;65.00;;;;;;4914464;29;20212;-93
2022/04/25 04:38:38;;;;;;;14.93;6.00;;;13.30;65.10;;;;;;4915095;29;20600;-93
2022/04/25 04:41:05;;;;;;;20.53;5.83;;;13.30;64.80;;;;;;4904126;29;20621;-91
2022/04/25 04:43:32;;;;;;;21.07;7.47;;;13.30;65.10;;;;;;4920060;29;20214;-93
2022/04/25 04:46:03;;;;;;;20.50;7.03;;;13.40;65.20;;;;;;4931992;29;20217;-91
2022/04/25 04:48:30;;;;;;;14.73;6.20;;;13.30;65.20;;;;;;4916456;29;20219;-91
2022/04/25 04:50:58;;;;;;;16.37;6.93;;;13.40;65.10;;;;;;4917339;29;20223;-91
2022/04/25 04:53:25;;;;;;;12.57;5.53;;;13.40;64.90;;;;;;4913274;29;20201;-94
2022/04/25 04:55:54;;;;;;;19.20;6.23;;;13.40;65.00;;;;;;4917171;29;20268;-95
2022/04/25 04:58:24;;;;;;;12.97;5.83;;;13.50;65.40;;;;;;4915623;29;20223;-93
2022/04/25 05:00:51;;;;;;;20.60;8.20;;;13.50;65.60;;;;;;4904879;29;20651;-93
2022/04/25 05:03:25;;;;;;;17.37;5.90;;;13.50;65.70;;;;;;4905287;29;20253;-94
2022/04/25 05:05:53;;;;;;;21.43;7.80;;;13.50;66.00;;;;;;4914636;29;20580;-93
2022/04/25 05:08:21;;;;;;;13.93;6.10;;;13.50;65.80;;;;;;4917521;29;20205;-90
2022/04/25 05:10:48;;;;;;;15.17;6.30;;;13.50;66.10;;;;;;4932272;29;20214;-94
2022/04/25 05:13:17;;;;;;;19.00;7.07;;;13.50;65.90;;;;;;4925659;29;20237;-93
2022/04/25 05:15:44;;;;;;;15.00;6.47;;;13.50;66.30;;;;;;4923435;29;20912;-93
2022/04/25 05:18:12;;;;;;;12.87;5.90;;;13.50;66.40;;;;;;4920148;29;20291;-92
2022/04/25 05:20:44;;;;;;;14.07;6.80;;;13.50;66.30;;;;;;4918904;29;20732;-91
2022/04/25 05:23:11;;;;;;;14.93;6.17;;;13.60;66.40;;;;;;4902442;29;20213;-89
2022/04/25 05:25:40;;;;;;;15.77;6.23;;;13.60;66.70;;;;;;4915082;29;20296;-91
2022/04/25 05:28:07;;;;;;;24.03;5.97;;;13.60;66.00;;;;;;4907830;29;20235;-89
2022/04/25 05:30:34;;;;;;;17.37;6.70;;;13.60;66.10;;;;;;4906502;29;20257;-90
2022/04/25 05:33:02;;;;;;;28.97;8.60;;;13.60;65.70;;;;;;4911255;29;20261;-91
2022/04/25 05:35:31;;;;;;;15.17;6.40;;;13.60;65.60;;;;;;4895231;29;20210;-90
2022/04/25 05:38:01;;;;;;;24.40;7.30;;;13.60;65.60;;;;;;4895740;29;20233;-92
2022/04/25 05:40:38;;;;;;;20.20;7.67;;;13.60;65.70;;;;;;4913546;29;20866;-91
2022/04/25 05:43:08;;;;;;;20.37;7.80;;;13.60;66.20;;;;;;4913257;29;20637;-92
2022/04/25 05:45:35;;;;;;;16.67;6.40;;;13.60;65.90;;;;;;4907462;29;20270;-91
2022/04/25 05:53:38;;;;;;;13.97;6.20;;;13.70;66.00;;;;;;4911077;29;20213;-93
2022/04/25 05:56:07;;;;;;;12.77;5.70;;;13.70;66.20;;;;;;4896079;29;20226;-92
2022/04/25 05:58:34;;;;;;;22.77;7.77;;;13.70;66.50;;;;;;4894768;29;20439;-92
2022/04/25 06:01:07;;;;;;;16.83;7.10;;;13.70;66.30;;;;;;4900749;29;20204;-92
2022/04/25 06:03:34;;;;;;;20.10;7.50;;;13.70;66.50;;;;;;4907961;29;20945;-91
2022/04/25 06:06:03;;;;;;;15.53;6.63;;;13.70;66.50;;;;;;4908066;29;20610;-92
2022/04/25 06:08:30;;;;;;;23.80;7.90;;;13.70;67.10;;;;;;4909527;29;20630;-92
2022/04/25 06:10:58;;;;;;;16.67;5.70;;;13.80;66.60;;;;;;4894580;29;20211;-90
2022/04/25 06:13:25;;;;;;;18.23;6.37;;;13.80;66.20;;;;;;4904670;29;20209;-91
2022/04/25 06:15:52;;;;;;;14.57;5.93;;;13.90;65.80;;;;;;4913314;29;20209;-88
2022/04/25 06:18:20;;;;;;;12.70;5.10;;;13.90;65.20;;;;;;4910605;29;20223;-88
2022/04/25 06:20:48;;;;;;;19.47;6.37;;;13.90;64.90;;;;;;4906141;29;20698;-88
2022/04/25 06:23:15;;;;;;;19.63;6.47;;;14.00;64.50;;;;;;4901971;29;20651;-92
2022/04/25 06:25:42;;;;;;;18.17;6.87;;;14.00;64.20;;;;;;4902814;29;21031;-89
2022/04/25 06:28:10;;;;;;;19.37;7.10;;;14.00;63.90;;;;;;4900204;29;20216;-89
2022/04/25 06:31:05;;;;;;;15.50;4.93;;;14.00;63.90;;;;;;4915043;29;20302;-92
2022/04/25 06:33:40;;;;;;;18.20;5.57;;;14.10;64.20;;;;;;4915512;29;20213;-91
2022/04/25 06:36:07;;;;;;;13.00;5.77;;;14.10;64.20;;;;;;4899830;29;20741;-90
2022/04/25 06:38:34;;;;;;;15.87;6.27;;;14.10;64.20;;;;;;4913166;29;20252;-88
2022/04/25 06:41:01;;;;;;;15.20;5.63;;;14.10;64.10;;;;;;4913594;29;20507;-91
2022/04/25 06:43:31;;;;;;;15.97;5.97;;;14.10;64.00;;;;;;4916724;29;20215;-91
2022/04/25 06:45:58;;;;;;;13.43;4.67;;;14.10;64.00;;;;;;4915261;29;20220;-93
2022/04/25 06:48:25;;;;;;;12.60;5.50;;;14.20;64.10;;;;;;4917386;29;20303;-90
2022/04/25 06:50:55;;;;;;;19.07;6.67;;;14.20;64.10;;;;;;4913462;29;20216;-95
2022/04/25 06:53:23;;;;;;;11.70;5.17;;;14.20;64.10;;;;;;4912997;29;20795;-94
2022/04/25 06:55:51;;;;;;;15.20;5.10;;;14.30;64.10;;;;;;4916131;29;20212;-93
2022/04/25 06:58:18;;;;;;;10.10;4.90;;;14.30;63.80;;;;;;4915693;29;20241;-91
2022/04/25 07:00:49;;;;;;;15.93;5.47;;;14.40;63.60;;;;;;4915642;29;20208;-92
2022/04/25 07:03:16;;;;;;;16.90;5.40;;;14.40;63.40;;;;;;4916673;29;20234;-92
2022/04/25 07:05:45;;;;;;;15.63;5.70;;;14.40;63.20;;;;;;4917560;29;20244;-93
2022/04/25 07:08:12;;;;;;;13.37;5.20;;;14.50;63.50;;;;;;4917200;29;20295;-93
2022/04/25 07:10:44;;;;;;;12.93;5.13;;;14.40;63.40;;;;;;4927900;29;20213;-94
2022/04/25 07:16:18;;;;;;;12.47;5.10;;;14.50;63.70;;;;;;4914303;29;20661;-94
2022/04/25 07:18:48;;;;;;;16.87;5.83;;;14.50;64.10;;;;;;4904686;29;20687;-93
2022/04/25 07:29:29;;;;;;;10.57;5.47;;;14.70;64.00;;;;;;4939958;29;20268;-90
2022/04/25 07:31:57;;;;;;;13.70;5.33;;;14.80;63.70;;;;;;4941066;29;20509;-89
2022/04/25 07:34:24;;;;;;;13.23;5.50;;;14.80;63.50;;;;;;4942099;29;20670;-93
2022/04/25 07:36:53;;;;;;;12.80;5.17;;;14.90;63.20;;;;;;4938957;29;20212;-89
2022/04/25 07:39:21;;;;;;;12.50;5.20;;;14.90;63.10;;;;;;4944555;29;20303;-92
2022/04/25 07:41:51;;;;;;;10.87;4.93;;;14.90;63.20;;;;;;4936979;29;20324;-91
2022/04/25 07:44:18;;;;;;;10.47;4.23;;;15.00;63.40;;;;;;4934347;29;20204;-91
2022/04/25 07:49:28;;;;;;;10.10;4.30;;;15.00;63.10;;;;;;4939368;29;20291;-94
2022/04/25 07:51:57;;;;;;;18.03;7.30;;;15.10;63.20;;;;;;4933900;29;20248;-91
2022/04/25 07:54:24;;;;;;;12.70;5.90;;;15.10;62.90;;;;;;4934476;29;20311;-91
2022/04/25 07:56:55;;;;;;;24.63;7.93;;;15.10;62.30;;;;;;4932882;29;20268;-91
2022/04/25 07:59:23;;;;;;;16.27;5.93;;;15.10;62.10;;;;;;4934126;29;20235;-92
2022/04/25 08:01:51;;;;;;;19.83;6.63;;;15.10;62.50;;;;;;4934368;29;20210;-94
2022/04/25 08:04:19;;;;;;;9.27;4.33;;;15.10;62.90;;;;;;4934071;29;20241;-93
2022/04/25 08:06:47;;;;;;;16.10;5.83;;;15.20;63.10;;;;;;4933541;29;20279;-88
2022/04/25 08:09:16;;;;;;;15.13;5.73;;;15.30;63.20;;;;;;4933435;29;20299;-92
2022/04/25 08:11:43;;;;;;;18.43;4.83;;;15.40;63.00;;;;;;4934601;29;20203;-94
2022/04/25 08:19:40;;;;;;;18.80;7.47;;;15.60;61.00;;;;;;4947109;29;20397;-91
2022/04/25 08:22:10;;;;;;;20.90;7.30;;;15.70;61.10;;;;;;4941791;29;20625;-93
2022/04/25 08:24:37;;;;;;;16.43;6.77;;;15.80;61.20;;;;;;4941159;29;20214;-94
2022/04/25 08:27:20;;;;;;;15.93;6.67;;;15.80;61.20;;;;;;4942086;29;20235;-93
2022/04/25 08:29:49;;;;;;;19.33;6.93;;;15.80;61.20;;;;;;4939610;29;20217;-92
2022/04/25 08:32:16;;;;;;;13.90;6.10;;;15.80;62.00;;;;;;4945173;29;20234;-91
2022/04/25 08:34:45;;;;;;;13.03;5.67;;;15.90;60.80;;;;;;4949445;29;20196;-94
2022/04/25 08:37:22;;;;;;;12.57;5.97;;;15.90;60.40;;;;;;4934617;29;21014;-93
2022/04/25 08:39:49;;;;;;;13.60;6.17;;;15.90;60.30;;;;;;4914903;29;20339;-90
2022/04/25 08:42:17;;;;;;;10.03;5.30;;;16.00;59.90;;;;;;4931441;29;20290;-91
2022/04/25 08:44:46;;;;;;;12.93;5.80;;;16.00;59.40;;;;;;4950731;28;20215;-92
2022/04/25 08:47:20;;;;;;;13.47;5.60;;;16.00;59.20;;;;;;4947531;29;20423;-90
2022/04/25 08:49:48;;;;;;;11.27;4.97;;;15.90;59.10;;;;;;4935130;29;20215;-90
2022/04/25 08:52:15;;;;;;;16.00;6.40;;;15.90;58.90;;;;;;4930706;29;20208;-91
2022/04/25 08:54:47;;;;;;;16.27;6.17;;;15.90;58.80;;;;;;4934565;29;20241;-92
2022/04/25 08:57:15;;;;;;;11.00;5.27;;;15.90;59.20;;;;;;4923269;29;20221;-92
2022/04/25 08:59:44;;;;;;;13.50;6.07;;;15.80;59.40;;;;;;4934811;29;20275;-90
2022/04/25 09:02:13;;;;;;;15.80;5.87;;;15.80;59.90;;;;;;4940920;29;20574;-91
2022/04/25 09:04:42;;;;;;;16.43;6.17;;;15.80;60.00;;;;;;4942494;29;20295;-94
2022/04/25 09:07:09;;;;;;;9.93;5.90;;;15.90;60.20;;;;;;4939299;29;20217;-91
2022/04/25 09:09:36;;;;;;;22.93;6.00;;;16.00;59.70;;;;;;4939483;29;20369;-94
2022/04/25 09:12:11;;;;;;;13.50;6.23;;;16.10;59.50;;;;;;4939667;29;21063;-89
2022/04/25 09:14:40;;;;;;;16.30;7.03;;;16.10;59.10;;;;;;4937236;29;20211;-89
2022/04/25 09:17:07;;;;;;;15.50;7.17;;;16.20;59.60;;;;;;4924573;29;20257;-90
2022/04/25 09:19:36;;;;;;;9.20;5.50;;;16.30;59.70;;;;;;4917260;29;20328;-91
2022/04/25 09:22:05;;;;;;;16.70;7.00;;;16.40;59.80;;;;;;4927263;29;20240;-91
2022/04/25 09:24:34;;;;;;;15.13;7.03;;;16.50;59.50;;;;;;4915706;29;20273;-90
2022/04/25 09:27:18;;;;;;;13.30;6.43;;;16.60;60.00;;;;;;4931793;29;20633;-93
2022/04/25 09:29:48;;;;;;;13.23;6.67;;;16.70;59.20;;;;;;4924145;29;20219;-91
2022/04/25 09:32:17;;;;;;;11.47;6.80;;;16.80;58.50;;;;;;4927768;29;20209;-91
2022/04/25 09:35:02;;;;;;;12.60;6.57;;;16.80;57.60;;;;;;4932020;29;20673;-92
2022/04/25 09:37:46;;;;;;;24.77;10.30;;;16.80;57.50;;;;;;4931326;29;20210;-91
2022/04/25 09:40:16;;;;;;;11.90;8.03;;;16.80;57.30;;;;;;4924887;29;20243;-93
2022/04/25 09:42:46;;;;;;;12.77;8.20;;;16.90;57.80;;;;;;4929708;29;20649;-94
2022/04/25 09:45:17;;;;;;;12.03;7.73;;;16.90;57.50;;;;;;4930701;29;20636;-94
2022/04/25 09:47:56;;;;;;;15.50;8.73;;;16.90;57.60;;;;;;4935573;29;20242;-95
2022/04/25 09:50:28;;;;;;;15.80;9.33;;;17.00;57.40;;;;;;4934271;29;20233;-96
2022/04/25 09:52:58;;;;;;;12.73;9.50;;;17.00;57.60;;;;;;4931779;29;20996;-94
2022/04/25 09:55:27;;;;;;;13.27;8.67;;;17.00;57.90;;;;;;4933074;29;20222;-92
2022/04/25 09:57:56;;;;;;;15.77;9.30;;;17.10;57.60;;;;;;4933162;29;20297;-94
2022/04/25 10:00:32;;;;;;;14.63;9.17;;;17.10;57.20;;;;;;4933378;29;20280;-93
2022/04/25 10:03:00;;;;;;;14.33;9.30;;;17.20;56.90;;;;;;4933524;29;20230;-93
2022/04/25 10:05:41;;;;;;;20.87;11.47;;;17.20;57.30;;;;;;4936416;29;20301;-92
2022/04/25 10:08:10;;;;;;;15.90;9.73;;;17.20;56.20;;;;;;4934437;29;20796;-92
2022/04/25 10:10:41;;;;;;;15.47;9.77;;;17.30;56.70;;;;;;4934143;29;20634;-93
2022/04/25 10:13:11;;;;;;;15.70;10.37;;;17.20;56.30;;;;;;4934798;29;20206;-93
2022/04/25 10:15:39;;;;;;;18.03;9.87;;;17.20;56.50;;;;;;4927600;29;20242;-91
2022/04/25 10:18:07;;;;;;;16.90;9.83;;;17.20;56.70;;;;;;4936327;29;20565;-90
2022/04/25 10:20:36;;;;;;;15.00;9.57;;;17.20;56.70;;;;;;4934789;29;20657;-91
2022/04/25 10:23:07;;;;;;;13.67;8.97;;;17.10;56.90;;;;;;4935186;29;20213;-93
2022/04/25 10:25:46;;;;;;;16.60;9.20;;;17.10;57.00;;;;;;4936701;29;20259;-94
2022/04/25 10:28:20;;;;;;;16.67;9.47;;;17.10;56.80;;;;;;4940973;29;20257;-92
2022/04/25 10:30:50;;;;;;;16.40;10.00;;;17.00;57.00;;;;;;4947882;29;20257;-92
2022/04/25 10:33:18;;;;;;;16.83;9.47;;;17.00;57.20;;;;;;4937281;29;20215;-91
2022/04/25 10:35:48;;;;;;;27.63;13.33;;;17.00;57.40;;;;;;4933340;29;20223;-92
2022/04/25 10:38:50;;;;;;;16.00;9.73;;;16.90;57.50;;;;;;4928650;29;20592;-91
2022/04/25 10:44:53;;;;;;;21.30;10.50;;;16.80;57.70;;;;;;4929870;29;20253;-90
2022/04/25 10:47:57;;;;;;;24.23;10.53;;;16.70;57.70;;;;;;4931940;29;20918;-93
2022/04/25 10:50:25;;;;;;;13.17;9.23;;;16.60;57.50;;;;;;4926810;29;20228;-92
2022/04/25 10:53:02;;;;;;;16.57;9.50;;;16.60;58.10;;;;;;4934629;29;20466;-92
2022/04/25 10:55:42;;;;;;;14.33;9.97;;;16.50;58.70;;;;;;4936005;29;20207;-92
2022/04/25 10:58:18;;;;;;;14.17;10.07;;;16.40;58.90;;;;;;4936019;29;20300;-94
2022/04/25 11:01:06;;;;;;;15.77;10.20;;;16.40;58.90;;;;;;4935283;29;20311;-93
2022/04/25 11:03:33;;;;;;;16.80;10.90;;;16.30;59.20;;;;;;4936552;29;20283;-93
2022/04/25 11:09:04;;;;;;;19.37;11.40;;;16.20;59.60;;;;;;4905183;29;20209;-92
2022/04/25 11:11:47;;;;;;;16.47;10.67;;;16.10;60.20;;;;;;4934064;29;20271;-94
2022/04/25 11:14:17;;;;;;;20.67;10.67;;;16.00;61.40;;;;;;4936608;29;20302;-92
2022/04/25 11:17:10;;;;;;;16.87;9.80;;;16.00;60.70;;;;;;4930980;29;20277;-92
2022/04/25 11:19:51;;;;;;;16.40;10.03;;;15.80;60.70;;;;;;4935225;29;20704;-94
2022/04/25 11:22:54;;;;;;;14.00;8.83;;;15.70;61.10;;;;;;4935949;29;20540;-93
2022/04/25 11:28:27;;;;;;;13.27;8.80;;;15.60;61.50;;;;;;4926971;29;20289;-96
2022/04/25 11:31:38;;;;;;;12.83;8.77;;;15.50;60.90;;;;;;4935149;29;20208;-93
2022/04/25 11:34:11;;;;;;;12.77;8.83;;;15.50;61.40;;;;;;4933508;29;20224;-93
2022/04/25 11:36:41;;;;;;;13.83;9.67;;;15.50;61.60;;;;;;4928506;29;20287;-94
2022/04/25 11:41:57;;;;;;;14.80;10.07;;;15.40;62.30;;;;;;4918423;29;20203;-94
2022/04/25 11:44:26;;;;;;;17.80;10.17;;;15.40;62.80;;;;;;4930673;29;20264;-93
2022/04/25 11:46:56;;;;;;;17.00;10.23;;;15.40;63.60;;;;;;4936339;29;20220;-95
2022/04/25 11:49:37;;;;;;;12.93;9.40;;;15.40;64.00;;;;;;4935368;29;20205;-94
2022/04/25 11:52:07;;;;;;;18.33;10.27;;;15.40;64.90;;;;;;4932244;29;20216;-96
2022/04/25 11:54:34;;;;;;;18.33;9.53;;;15.40;64.80;;;;;;4938513;29;20813;-94
2022/04/25 11:57:03;;;;;;;9.73;5.63;;;15.40;65.50;;;;;;4945482;29;20215;-96
2022/04/25 11:59:31;;;;;;;10.07;5.10;;;15.50;65.30;;;;;;4942691;29;20232;-93
2022/04/25 12:01:59;;;;;;;12.67;5.83;;;15.60;64.90;;;;;;4935575;29;20720;-93
2022/04/25 12:04:27;;;;;;;18.93;7.37;;;15.70;64.40;;;;;;4932558;29;20223;-94
2022/04/25 12:06:58;;;;;;;9.07;5.13;;;15.90;63.30;;;;;;4935174;29;20888;-95
2022/04/25 12:17:49;;;;;;;15.13;6.57;;;16.60;61.10;;;;;;4934892;29;20641;-90
2022/04/25 12:20:32;;;;;;;8.57;4.87;;;16.70;60.70;;;;;;4934672;29;20329;-92
2022/04/25 12:23:01;;;;;;;12.90;5.90;;;16.90;60.70;;;;;;4931061;29;20247;-93
2022/04/25 12:25:32;;;;;;;10.47;6.13;;;16.90;59.50;;;;;;4928998;29;20218;-92
2022/04/25 12:28:16;;;;;;;10.07;5.67;;;17.10;59.30;;;;;;4940297;29;20234;-91
2022/04/25 12:30:55;;;;;;;12.10;5.80;;;17.20;58.10;;;;;;4937345;29;20297;-90
2022/04/25 12:33:26;;;;;;;11.20;5.77;;;17.20;57.90;;;;;;4934688;29;20561;-91
2022/04/25 12:36:09;;;;;;;13.27;5.77;;;17.20;57.80;;;;;;4935633;29;20195;-92
2022/04/25 12:38:41;;;;;;;13.80;6.37;;;17.30;58.50;;;;;;4927587;29;20203;-93
2022/04/25 12:41:20;;;;;;;10.67;5.90;;;17.30;58.70;;;;;;4935835;29;20637;-93
2022/04/25 12:43:49;;;;;;;11.60;6.53;;;17.40;58.80;;;;;;4922969;29;20208;-93
2022/04/25 12:46:18;;;;;;;14.53;6.93;;;17.50;58.50;;;;;;4915433;29;20211;-90
2022/04/25 12:48:59;;;;;;;13.00;5.70;;;17.50;58.00;;;;;;4925805;29;20211;-91
2022/04/25 12:51:28;;;;;;;10.23;5.03;;;17.60;57.00;;;;;;4933430;29;20235;-91
2022/04/25 12:53:59;;;;;;;13.40;6.13;;;17.70;57.50;;;;;;4934666;29;20235;-94
2022/04/25 12:56:30;;;;;;;10.77;6.37;;;17.80;57.10;;;;;;4934211;29;20224;-91
2022/04/25 12:59:00;;;;;;;12.67;6.50;;;17.80;56.90;;;;;;4935261;29;20262;-96
2022/04/25 13:01:34;;;;;;;18.17;8.37;;;17.90;56.70;;;;;;4933876;29;20239;-93
2022/04/25 13:04:11;;;;;;;15.13;6.83;;;17.90;56.40;;;;;;4933423;29;20240;-94
2022/04/25 13:06:38;;;;;;;11.60;6.77;;;18.00;56.60;;;;;;4932759;29;20778;-89
2022/04/25 13:09:15;;;;;;;13.40;7.47;;;18.00;56.40;;;;;;4932653;29;20214;-91
2022/04/25 13:11:43;;;;;;;15.27;7.93;;;18.00;56.20;;;;;;4933060;29;20203;-91
2022/04/25 13:14:16;;;;;;;15.23;7.33;;;18.00;56.30;;;;;;4932805;29;20215;-94
2022/04/25 13:16:53;;;;;;;17.73;8.27;;;17.90;56.90;;;;;;4933178;29;20223;-91
2022/04/25 13:19:23;;;;;;;13.57;7.23;;;17.90;57.00;;;;;;4925468;29;20210;-91
2022/04/25 13:21:50;;;;;;;14.70;8.40;;;17.90;57.10;;;;;;4931628;29;20226;-93
2022/04/25 13:24:19;;;;;;;20.63;8.13;;;17.80;57.20;;;;;;4931978;29;20215;-91
2022/04/25 13:26:46;;;;;;;16.07;8.43;;;17.70;57.30;;;;;;4933477;29;20216;-91
2022/04/25 13:29:13;;;;;;;17.37;8.37;;;17.60;57.00;;;;;;4932682;29;20550;-90
2022/04/25 13:31:40;;;;;;;13.67;8.10;;;17.50;56.70;;;;;;4935547;29;20210;-92
2022/04/25 13:34:08;;;;;;;13.27;7.30;;;17.40;56.80;;;;;;4933574;29;20207;-93
2022/04/25 13:36:39;;;;;;;13.37;7.13;;;17.40;56.90;;;;;;4934843;29;20736;-91
2022/04/25 13:39:08;;;;;;;15.57;8.43;;;17.30;57.10;;;;;;4931699;29;20214;-90
2022/04/25 13:41:40;;;;;;;10.97;7.73;;;17.20;57.10;;;;;;4932999;29;20999;-93
2022/04/25 13:44:07;;;;;;;13.50;7.73;;;17.20;57.30;;;;;;4933663;29;20213;-90
2022/04/25 13:46:36;;;;;;;15.97;8.17;;;17.20;57.60;;;;;;4933772;29;20660;-91
2022/04/25 13:49:03;;;;;;;11.90;7.10;;;17.10;57.40;;;;;;4932057;29;20206;-92
2022/04/25 13:51:30;;;;;;;13.27;7.53;;;17.10;57.50;;;;;;4932921;29;20213;-90